sensor_id;sensor_type;location;lat;lon;timestamp;P1;durP1;ratioP1;P2;durP2;ratioP2
19187;SDS011;9726;52.198;8.792;2023-02-03T00:00:47;57.47;;;28.33;;
19187;SDS011;9726;52.198;8.792;2023-02-03T00:03:14;54.47;;;26.50;;
19187;SDS011;9726;52.198;8.792;2023-02-03T00:05:42;58.93;;;27.87;;
19187;SDS011;9726;52.198;8.792;2023-02-03T00:08:09;39.70;;;24.03;;
19187;SDS011;9726;52.198;8.792;2023-02-03T00:10:37;51.57;;;26.80;;
19187;SDS011;9726;52.198;8.792;2023-02-03T00:13:05;45.30;;;24.23;;
19187;SDS011;9726;52.198;8.792;2023-02-03T00:15:32;47.43;;;27.97;;
19187;SDS011;9726;52.198;8.792;2023-02-03T00:17:59;33.47;;;22.80;;
19187;SDS011;9726;52.198;8.792;2023-02-03T00:20:27;45.97;;;22.03;;
19187;SDS011;9726;52.198;8.792;2023-02-03T00:23:01;38.80;;;21.10;;
19187;SDS011;9726;52.198;8.792;2023-02-03T00:25:28;46.07;;;24.47;;
19187;SDS011;9726;52.198;8.792;2023-02-03T00:27:55;48.07;;;22.80;;
19187;SDS011;9726;52.198;8.792;2023-02-03T00:30:23;36.03;;;23.13;;
19187;SDS011;9726;52.198;8.792;2023-02-03T00:32:51;31.33;;;19.03;;
19187;SDS011;9726;52.198;8.792;2023-02-03T00:35:19;44.93;;;25.57;;
19187;SDS011;9726;52.198;8.792;2023-02-03T00:37:53;42.83;;;24.43;;
19187;SDS011;9726;52.198;8.792;2023-02-03T00:40:21;41.40;;;19.70;;
19187;SDS011;9726;52.198;8.792;2023-02-03T00:42:49;40.53;;;21.07;;
19187;SDS011;9726;52.198;8.792;2023-02-03T00:45:17;39.53;;;25.10;;
19187;SDS011;9726;52.198;8.792;2023-02-03T00:47:44;31.93;;;17.57;;
19187;SDS011;9726;52.198;8.792;2023-02-03T00:50:12;27.37;;;16.97;;
19187;SDS011;9726;52.198;8.792;2023-02-03T00:52:39;39.90;;;21.60;;
19187;SDS011;9726;52.198;8.792;2023-02-03T00:55:07;41.17;;;18.83;;
19187;SDS011;9726;52.198;8.792;2023-02-03T00:57:34;28.53;;;19.63;;
19187;SDS011;9726;52.198;8.792;2023-02-03T01:00:03;28.77;;;17.97;;
19187;SDS011;9726;52.198;8.792;2023-02-03T01:02:30;25.00;;;16.63;;
19187;SDS011;9726;52.198;8.792;2023-02-03T01:04:58;46.07;;;21.97;;
19187;SDS011;9726;52.198;8.792;2023-02-03T01:07:25;46.03;;;21.63;;
19187;SDS011;9726;52.198;8.792;2023-02-03T01:09:52;33.47;;;19.67;;
19187;SDS011;9726;52.198;8.792;2023-02-03T01:12:20;33.30;;;20.60;;
19187;SDS011;9726;52.198;8.792;2023-02-03T01:14:47;38.03;;;22.53;;
19187;SDS011;9726;52.198;8.792;2023-02-03T01:17:15;33.90;;;21.30;;
19187;SDS011;9726;52.198;8.792;2023-02-03T01:19:42;29.10;;;19.37;;
19187;SDS011;9726;52.198;8.792;2023-02-03T01:22:10;40.40;;;21.40;;
19187;SDS011;9726;52.198;8.792;2023-02-03T01:24:37;25.73;;;15.90;;
19187;SDS011;9726;52.198;8.792;2023-02-03T01:27:05;35.50;;;19.27;;
19187;SDS011;9726;52.198;8.792;2023-02-03T01:29:32;45.50;;;20.07;;
19187;SDS011;9726;52.198;8.792;2023-02-03T01:32:00;29.73;;;17.10;;
19187;SDS011;9726;52.198;8.792;2023-02-03T01:34:27;27.50;;;18.70;;
19187;SDS011;9726;52.198;8.792;2023-02-03T01:36:55;24.37;;;13.83;;
19187;SDS011;9726;52.198;8.792;2023-02-03T01:39:22;29.50;;;14.63;;
19187;SDS011;9726;52.198;8.792;2023-02-03T01:41:53;36.40;;;20.33;;
19187;SDS011;9726;52.198;8.792;2023-02-03T01:47:04;40.27;;;18.80;;
19187;SDS011;9726;52.198;8.792;2023-02-03T01:49:34;32.83;;;18.43;;
19187;SDS011;9726;52.198;8.792;2023-02-03T01:52:02;37.37;;;18.97;;
19187;SDS011;9726;52.198;8.792;2023-02-03T01:54:30;32.23;;;18.03;;
19187;SDS011;9726;52.198;8.792;2023-02-03T01:57:05;30.67;;;15.77;;
19187;SDS011;9726;52.198;8.792;2023-02-03T01:59:37;30.80;;;17.00;;
19187;SDS011;9726;52.198;8.792;2023-02-03T02:02:05;28.80;;;15.73;;
19187;SDS011;9726;52.198;8.792;2023-02-03T02:04:38;28.10;;;18.63;;
19187;SDS011;9726;52.198;8.792;2023-02-03T02:07:08;34.10;;;17.70;;
19187;SDS011;9726;52.198;8.792;2023-02-03T02:09:38;30.77;;;19.80;;
19187;SDS011;9726;52.198;8.792;2023-02-03T02:12:08;24.17;;;13.27;;
19187;SDS011;9726;52.198;8.792;2023-02-03T02:14:35;34.70;;;19.40;;
19187;SDS011;9726;52.198;8.792;2023-02-03T02:19:55;25.67;;;16.90;;
19187;SDS011;9726;52.198;8.792;2023-02-03T02:22:35;28.57;;;14.57;;
19187;SDS011;9726;52.198;8.792;2023-02-03T02:33:00;25.90;;;13.33;;
19187;SDS011;9726;52.198;8.792;2023-02-03T02:36:30;25.60;;;16.67;;
19187;SDS011;9726;52.198;8.792;2023-02-03T02:43:28;18.27;;;11.17;;
19187;SDS011;9726;52.198;8.792;2023-02-03T02:46:10;37.20;;;16.87;;
19187;SDS011;9726;52.198;8.792;2023-02-03T02:48:51;32.20;;;18.53;;
19187;SDS011;9726;52.198;8.792;2023-02-03T02:51:21;32.93;;;16.53;;
19187;SDS011;9726;52.198;8.792;2023-02-03T02:53:57;30.40;;;18.20;;
19187;SDS011;9726;52.198;8.792;2023-02-03T02:56:26;32.00;;;11.20;;
19187;SDS011;9726;52.198;8.792;2023-02-03T02:58:55;26.73;;;15.60;;
19187;SDS011;9726;52.198;8.792;2023-02-03T03:01:24;21.10;;;13.13;;
19187;SDS011;9726;52.198;8.792;2023-02-03T03:03:52;34.43;;;16.80;;
19187;SDS011;9726;52.198;8.792;2023-02-03T03:06:21;26.07;;;12.47;;
19187;SDS011;9726;52.198;8.792;2023-02-03T03:11:21;20.63;;;11.57;;
19187;SDS011;9726;52.198;8.792;2023-02-03T03:13:52;28.70;;;14.80;;
19187;SDS011;9726;52.198;8.792;2023-02-03T03:16:22;28.60;;;13.57;;
19187;SDS011;9726;52.198;8.792;2023-02-03T03:18:55;29.27;;;14.70;;
19187;SDS011;9726;52.198;8.792;2023-02-03T03:21:28;27.27;;;15.63;;
19187;SDS011;9726;52.198;8.792;2023-02-03T03:23:58;29.17;;;13.43;;
19187;SDS011;9726;52.198;8.792;2023-02-03T03:26:29;30.97;;;15.93;;
19187;SDS011;9726;52.198;8.792;2023-02-03T03:31:38;32.33;;;15.30;;
19187;SDS011;9726;52.198;8.792;2023-02-03T03:34:10;23.83;;;11.37;;
19187;SDS011;9726;52.198;8.792;2023-02-03T03:42:17;38.60;;;14.37;;
19187;SDS011;9726;52.198;8.792;2023-02-03T03:44:48;29.00;;;14.23;;
19187;SDS011;9726;52.198;8.792;2023-02-03T03:47:22;37.60;;;14.30;;
19187;SDS011;9726;52.198;8.792;2023-02-03T03:49:50;27.93;;;12.60;;
19187;SDS011;9726;52.198;8.792;2023-02-03T03:52:24;23.80;;;11.63;;
19187;SDS011;9726;52.198;8.792;2023-02-03T03:54:52;20.00;;;10.77;;
19187;SDS011;9726;52.198;8.792;2023-02-03T03:57:22;26.83;;;11.57;;
19187;SDS011;9726;52.198;8.792;2023-02-03T03:59:50;25.80;;;13.00;;
19187;SDS011;9726;52.198;8.792;2023-02-03T04:02:18;23.23;;;10.87;;
19187;SDS011;9726;52.198;8.792;2023-02-03T04:04:47;24.90;;;12.07;;
19187;SDS011;9726;52.198;8.792;2023-02-03T04:07:15;19.53;;;11.63;;
19187;SDS011;9726;52.198;8.792;2023-02-03T04:09:42;27.20;;;11.57;;
19187;SDS011;9726;52.198;8.792;2023-02-03T04:12:16;18.37;;;10.60;;
19187;SDS011;9726;52.198;8.792;2023-02-03T04:14:46;27.20;;;12.03;;
19187;SDS011;9726;52.198;8.792;2023-02-03T04:17:13;20.73;;;9.30;;
19187;SDS011;9726;52.198;8.792;2023-02-03T04:19:41;15.20;;;6.73;;
19187;SDS011;9726;52.198;8.792;2023-02-03T04:22:08;22.30;;;11.03;;
19187;SDS011;9726;52.198;8.792;2023-02-03T04:24:36;22.63;;;9.17;;
19187;SDS011;9726;52.198;8.792;2023-02-03T04:27:03;20.30;;;11.20;;
19187;SDS011;9726;52.198;8.792;2023-02-03T04:29:31;13.77;;;8.47;;
19187;SDS011;9726;52.198;8.792;2023-02-03T04:31:58;18.93;;;9.40;;
19187;SDS011;9726;52.198;8.792;2023-02-03T04:34:26;13.27;;;7.63;;
19187;SDS011;9726;52.198;8.792;2023-02-03T04:36:53;25.13;;;9.90;;
19187;SDS011;9726;52.198;8.792;2023-02-03T04:39:20;34.60;;;9.93;;
19187;SDS011;9726;52.198;8.792;2023-02-03T04:41:48;18.33;;;8.17;;
19187;SDS011;9726;52.198;8.792;2023-02-03T04:44:15;26.20;;;10.83;;
19187;SDS011;9726;52.198;8.792;2023-02-03T04:46:42;19.93;;;7.67;;
19187;SDS011;9726;52.198;8.792;2023-02-03T04:49:10;16.67;;;6.03;;
19187;SDS011;9726;52.198;8.792;2023-02-03T04:51:37;21.67;;;7.87;;
19187;SDS011;9726;52.198;8.792;2023-02-03T04:54:05;16.50;;;8.20;;
19187;SDS011;9726;52.198;8.792;2023-02-03T04:56:32;19.77;;;8.47;;
19187;SDS011;9726;52.198;8.792;2023-02-03T04:58:59;18.03;;;8.13;;
19187;SDS011;9726;52.198;8.792;2023-02-03T05:01:27;22.70;;;8.43;;
19187;SDS011;9726;52.198;8.792;2023-02-03T05:03:54;13.80;;;6.43;;
19187;SDS011;9726;52.198;8.792;2023-02-03T05:06:22;23.10;;;7.63;;
19187;SDS011;9726;52.198;8.792;2023-02-03T05:08:51;12.90;;;6.40;;
19187;SDS011;9726;52.198;8.792;2023-02-03T05:11:19;14.75;;;6.35;;
19187;SDS011;9726;52.198;8.792;2023-02-03T05:13:46;17.73;;;6.47;;
19187;SDS011;9726;52.198;8.792;2023-02-03T05:16:14;24.97;;;7.37;;
19187;SDS011;9726;52.198;8.792;2023-02-03T05:18:41;14.73;;;5.97;;
19187;SDS011;9726;52.198;8.792;2023-02-03T05:21:09;23.17;;;6.13;;
19187;SDS011;9726;52.198;8.792;2023-02-03T05:23:36;15.13;;;5.90;;
19187;SDS011;9726;52.198;8.792;2023-02-03T05:26:03;14.70;;;6.73;;
19187;SDS011;9726;52.198;8.792;2023-02-03T05:28:31;11.37;;;5.93;;
19187;SDS011;9726;52.198;8.792;2023-02-03T05:30:59;9.97;;;5.47;;
19187;SDS011;9726;52.198;8.792;2023-02-03T05:33:27;12.23;;;5.70;;
19187;SDS011;9726;52.198;8.792;2023-02-03T05:35:54;31.50;;;6.97;;
19187;SDS011;9726;52.198;8.792;2023-02-03T05:38:22;15.73;;;6.07;;
19187;SDS011;9726;52.198;8.792;2023-02-03T05:40:50;10.77;;;4.60;;
19187;SDS011;9726;52.198;8.792;2023-02-03T05:43:36;15.00;;;6.30;;
19187;SDS011;9726;52.198;8.792;2023-02-03T05:46:04;16.10;;;6.10;;
19187;SDS011;9726;52.198;8.792;2023-02-03T05:48:35;11.03;;;4.47;;
19187;SDS011;9726;52.198;8.792;2023-02-03T05:51:02;10.07;;;4.70;;
19187;SDS011;9726;52.198;8.792;2023-02-03T05:53:30;21.30;;;7.40;;
19187;SDS011;9726;52.198;8.792;2023-02-03T05:55:57;18.47;;;6.13;;
19187;SDS011;9726;52.198;8.792;2023-02-03T05:58:24;12.70;;;4.90;;
19187;SDS011;9726;52.198;8.792;2023-02-03T06:00:52;17.30;;;4.83;;
19187;SDS011;9726;52.198;8.792;2023-02-03T06:03:19;20.33;;;6.20;;
19187;SDS011;9726;52.198;8.792;2023-02-03T06:05:47;27.03;;;6.43;;
19187;SDS011;9726;52.198;8.792;2023-02-03T06:08:14;13.33;;;5.67;;
19187;SDS011;9726;52.198;8.792;2023-02-03T06:10:42;14.93;;;6.27;;
19187;SDS011;9726;52.198;8.792;2023-02-03T06:13:09;18.57;;;6.83;;
19187;SDS011;9726;52.198;8.792;2023-02-03T06:15:37;21.53;;;7.57;;
19187;SDS011;9726;52.198;8.792;2023-02-03T06:18:05;17.83;;;5.73;;
19187;SDS011;9726;52.198;8.792;2023-02-03T06:20:33;9.90;;;3.80;;
19187;SDS011;9726;52.198;8.792;2023-02-03T06:23:00;14.50;;;4.73;;
19187;SDS011;9726;52.198;8.792;2023-02-03T06:25:27;29.03;;;7.13;;
19187;SDS011;9726;52.198;8.792;2023-02-03T06:27:59;19.17;;;7.37;;
19187;SDS011;9726;52.198;8.792;2023-02-03T06:30:26;18.77;;;7.10;;
19187;SDS011;9726;52.198;8.792;2023-02-03T06:32:55;17.07;;;7.80;;
19187;SDS011;9726;52.198;8.792;2023-02-03T06:35:22;14.03;;;5.47;;
19187;SDS011;9726;52.198;8.792;2023-02-03T06:37:49;12.23;;;6.30;;
19187;SDS011;9726;52.198;8.792;2023-02-03T06:40:17;22.23;;;8.30;;
19187;SDS011;9726;52.198;8.792;2023-02-03T06:42:45;12.67;;;6.57;;
19187;SDS011;9726;52.198;8.792;2023-02-03T06:45:13;20.10;;;10.53;;
19187;SDS011;9726;52.198;8.792;2023-02-03T06:47:41;16.70;;;9.23;;
19187;SDS011;9726;52.198;8.792;2023-02-03T06:50:09;23.70;;;8.27;;
19187;SDS011;9726;52.198;8.792;2023-02-03T06:52:38;20.57;;;9.57;;
19187;SDS011;9726;52.198;8.792;2023-02-03T06:55:05;11.77;;;7.03;;
19187;SDS011;9726;52.198;8.792;2023-02-03T06:57:33;21.23;;;9.80;;
19187;SDS011;9726;52.198;8.792;2023-02-03T07:00:01;24.03;;;10.00;;
19187;SDS011;9726;52.198;8.792;2023-02-03T07:02:28;22.57;;;9.20;;
19187;SDS011;9726;52.198;8.792;2023-02-03T07:04:56;20.30;;;11.10;;
19187;SDS011;9726;52.198;8.792;2023-02-03T07:07:25;14.57;;;7.33;;
19187;SDS011;9726;52.198;8.792;2023-02-03T07:09:52;12.83;;;6.10;;
19187;SDS011;9726;52.198;8.792;2023-02-03T07:12:20;18.70;;;6.90;;
19187;SDS011;9726;52.198;8.792;2023-02-03T07:14:47;21.77;;;9.37;;
19187;SDS011;9726;52.198;8.792;2023-02-03T07:17:15;24.03;;;9.90;;
19187;SDS011;9726;52.198;8.792;2023-02-03T07:19:42;15.23;;;9.17;;
19187;SDS011;9726;52.198;8.792;2023-02-03T07:22:11;19.57;;;9.73;;
19187;SDS011;9726;52.198;8.792;2023-02-03T07:24:39;21.97;;;9.10;;
19187;SDS011;9726;52.198;8.792;2023-02-03T07:27:06;23.37;;;10.33;;
19187;SDS011;9726;52.198;8.792;2023-02-03T07:29:34;17.07;;;6.40;;
19187;SDS011;9726;52.198;8.792;2023-02-03T07:32:01;25.77;;;12.30;;
19187;SDS011;9726;52.198;8.792;2023-02-03T07:34:29;18.30;;;10.90;;
19187;SDS011;9726;52.198;8.792;2023-02-03T07:36:56;21.80;;;12.27;;
19187;SDS011;9726;52.198;8.792;2023-02-03T07:39:24;25.73;;;12.67;;
19187;SDS011;9726;52.198;8.792;2023-02-03T07:41:51;23.10;;;12.90;;
19187;SDS011;9726;52.198;8.792;2023-02-03T07:44:20;18.23;;;7.10;;
19187;SDS011;9726;52.198;8.792;2023-02-03T07:46:48;23.40;;;12.67;;
19187;SDS011;9726;52.198;8.792;2023-02-03T07:49:15;16.13;;;9.13;;
19187;SDS011;9726;52.198;8.792;2023-02-03T07:51:43;15.13;;;9.13;;
19187;SDS011;9726;52.198;8.792;2023-02-03T07:54:10;26.20;;;10.57;;
19187;SDS011;9726;52.198;8.792;2023-02-03T07:56:38;27.00;;;10.80;;
19187;SDS011;9726;52.198;8.792;2023-02-03T07:59:08;9.33;;;5.57;;
19187;SDS011;9726;52.198;8.792;2023-02-03T08:01:36;23.07;;;12.77;;
19187;SDS011;9726;52.198;8.792;2023-02-03T08:04:03;27.30;;;12.27;;
19187;SDS011;9726;52.198;8.792;2023-02-03T08:06:31;24.67;;;13.23;;
19187;SDS011;9726;52.198;8.792;2023-02-03T08:08:58;22.17;;;14.13;;
19187;SDS011;9726;52.198;8.792;2023-02-03T08:11:26;29.47;;;14.03;;
19187;SDS011;9726;52.198;8.792;2023-02-03T08:13:53;23.33;;;12.77;;
19187;SDS011;9726;52.198;8.792;2023-02-03T08:16:20;23.60;;;12.03;;
19187;SDS011;9726;52.198;8.792;2023-02-03T08:18:48;25.37;;;14.23;;
19187;SDS011;9726;52.198;8.792;2023-02-03T08:21:15;18.93;;;10.07;;
19187;SDS011;9726;52.198;8.792;2023-02-03T08:23:43;23.30;;;10.53;;
19187;SDS011;9726;52.198;8.792;2023-02-03T08:26:10;21.50;;;9.63;;
19187;SDS011;9726;52.198;8.792;2023-02-03T08:28:38;17.33;;;9.70;;
19187;SDS011;9726;52.198;8.792;2023-02-03T08:31:11;25.97;;;12.17;;
19187;SDS011;9726;52.198;8.792;2023-02-03T08:33:39;19.80;;;11.50;;
19187;SDS011;9726;52.198;8.792;2023-02-03T08:36:06;15.23;;;9.27;;
19187;SDS011;9726;52.198;8.792;2023-02-03T08:38:34;15.50;;;7.97;;
19187;SDS011;9726;52.198;8.792;2023-02-03T08:41:06;15.43;;;9.00;;
19187;SDS011;9726;52.198;8.792;2023-02-03T08:43:34;22.60;;;8.63;;
19187;SDS011;9726;52.198;8.792;2023-02-03T08:46:02;18.07;;;8.93;;
19187;SDS011;9726;52.198;8.792;2023-02-03T08:48:30;12.13;;;7.90;;
19187;SDS011;9726;52.198;8.792;2023-02-03T08:50:57;18.20;;;6.20;;
19187;SDS011;9726;52.198;8.792;2023-02-03T08:53:25;32.50;;;9.90;;
19187;SDS011;9726;52.198;8.792;2023-02-03T08:55:52;8.17;;;4.07;;
19187;SDS011;9726;52.198;8.792;2023-02-03T08:58:24;20.10;;;8.87;;
19187;SDS011;9726;52.198;8.792;2023-02-03T09:00:55;14.23;;;6.80;;
19187;SDS011;9726;52.198;8.792;2023-02-03T09:03:22;18.43;;;9.53;;
19187;SDS011;9726;52.198;8.792;2023-02-03T09:05:49;16.23;;;8.97;;
19187;SDS011;9726;52.198;8.792;2023-02-03T09:08:17;12.63;;;8.90;;
19187;SDS011;9726;52.198;8.792;2023-02-03T09:10:44;18.43;;;7.97;;
19187;SDS011;9726;52.198;8.792;2023-02-03T09:13:12;14.50;;;6.20;;
19187;SDS011;9726;52.198;8.792;2023-02-03T09:15:39;15.33;;;8.07;;
19187;SDS011;9726;52.198;8.792;2023-02-03T09:18:06;21.97;;;9.90;;
19187;SDS011;9726;52.198;8.792;2023-02-03T09:20:34;28.87;;;10.10;;
19187;SDS011;9726;52.198;8.792;2023-02-03T09:23:01;16.17;;;6.07;;
19187;SDS011;9726;52.198;8.792;2023-02-03T09:25:29;26.63;;;10.70;;
19187;SDS011;9726;52.198;8.792;2023-02-03T09:27:56;19.93;;;10.80;;
19187;SDS011;9726;52.198;8.792;2023-02-03T09:30:23;25.27;;;9.67;;
19187;SDS011;9726;52.198;8.792;2023-02-03T09:32:52;23.17;;;10.07;;
19187;SDS011;9726;52.198;8.792;2023-02-03T09:35:21;27.17;;;9.60;;
19187;SDS011;9726;52.198;8.792;2023-02-03T09:37:49;33.17;;;11.93;;
19187;SDS011;9726;52.198;8.792;2023-02-03T09:40:21;31.20;;;7.63;;
19187;SDS011;9726;52.198;8.792;2023-02-03T09:45:33;18.70;;;7.83;;
19187;SDS011;9726;52.198;8.792;2023-02-03T09:48:05;22.80;;;9.67;;
19187;SDS011;9726;52.198;8.792;2023-02-03T09:50:36;21.40;;;10.13;;
19187;SDS011;9726;52.198;8.792;2023-02-03T09:53:11;18.10;;;8.80;;
19187;SDS011;9726;52.198;8.792;2023-02-03T09:55:42;19.63;;;8.57;;
19187;SDS011;9726;52.198;8.792;2023-02-03T10:00:42;27.90;;;11.37;;
19187;SDS011;9726;52.198;8.792;2023-02-03T10:03:15;21.93;;;10.83;;
19187;SDS011;9726;52.198;8.792;2023-02-03T10:05:58;24.40;;;11.60;;
19187;SDS011;9726;52.198;8.792;2023-02-03T10:16:22;17.97;;;7.40;;
19187;SDS011;9726;52.198;8.792;2023-02-03T10:18:56;17.83;;;8.63;;
19187;SDS011;9726;52.198;8.792;2023-02-03T10:21:31;21.83;;;7.37;;
19187;SDS011;9726;52.198;8.792;2023-02-03T10:24:00;18.43;;;6.97;;
19187;SDS011;9726;52.198;8.792;2023-02-03T10:26:29;20.30;;;7.33;;
19187;SDS011;9726;52.198;8.792;2023-02-03T10:29:05;15.23;;;6.53;;
19187;SDS011;9726;52.198;8.792;2023-02-03T10:31:34;7.27;;;4.10;;
19187;SDS011;9726;52.198;8.792;2023-02-03T10:34:11;9.53;;;4.03;;
19187;SDS011;9726;52.198;8.792;2023-02-03T10:36:55;9.03;;;2.63;;
19187;SDS011;9726;52.198;8.792;2023-02-03T10:41:57;9.03;;;2.90;;
19187;SDS011;9726;52.198;8.792;2023-02-03T10:50:25;10.27;;;2.87;;
19187;SDS011;9726;52.198;8.792;2023-02-03T10:53:40;10.07;;;3.40;;
19187;SDS011;9726;52.198;8.792;2023-02-03T10:55:49;5.53;;;2.20;;
19187;SDS011;9726;52.198;8.792;2023-02-03T10:58:22;9.10;;;2.13;;
19187;SDS011;9726;52.198;8.792;2023-02-03T11:01:11;12.10;;;2.30;;
19187;SDS011;9726;52.198;8.792;2023-02-03T11:04:22;10.53;;;2.20;;
19187;SDS011;9726;52.198;8.792;2023-02-03T11:06:30;15.33;;;3.47;;
19187;SDS011;9726;52.198;8.792;2023-02-03T11:08:58;9.03;;;2.57;;
19187;SDS011;9726;52.198;8.792;2023-02-03T11:11:30;11.73;;;3.10;;
19187;SDS011;9726;52.198;8.792;2023-02-03T11:16:31;25.87;;;4.27;;
19187;SDS011;9726;52.198;8.792;2023-02-03T11:21:30;20.77;;;5.20;;
19187;SDS011;9726;52.198;8.792;2023-02-03T11:26:48;9.80;;;2.30;;
19187;SDS011;9726;52.198;8.792;2023-02-03T11:31:53;26.00;;;3.73;;
19187;SDS011;9726;52.198;8.792;2023-02-03T11:34:23;18.93;;;2.63;;
19187;SDS011;9726;52.198;8.792;2023-02-03T11:36:51;17.97;;;3.43;;
19187;SDS011;9726;52.198;8.792;2023-02-03T11:39:24;15.37;;;2.70;;
19187;SDS011;9726;52.198;8.792;2023-02-03T11:41:52;23.87;;;3.53;;
19187;SDS011;9726;52.198;8.792;2023-02-03T11:44:24;18.70;;;3.30;;
19187;SDS011;9726;52.198;8.792;2023-02-03T11:46:56;23.93;;;4.90;;
19187;SDS011;9726;52.198;8.792;2023-02-03T11:49:31;11.83;;;2.93;;
19187;SDS011;9726;52.198;8.792;2023-02-03T11:52:05;20.37;;;4.37;;
19187;SDS011;9726;52.198;8.792;2023-02-03T11:54:39;10.87;;;3.73;;
19187;SDS011;9726;52.198;8.792;2023-02-03T11:57:26;21.07;;;3.97;;
19187;SDS011;9726;52.198;8.792;2023-02-03T12:08:23;7.33;;;2.10;;
19187;SDS011;9726;52.198;8.792;2023-02-03T12:11:03;19.30;;;3.27;;
19187;SDS011;9726;52.198;8.792;2023-02-03T12:16:26;16.40;;;;;
19187;SDS011;9726;52.198;8.792;2023-02-03T12:21:48;21.77;;;3.77;;
19187;SDS011;9726;52.198;8.792;2023-02-03T12:29:40;24.90;;;4.00;;
19187;SDS011;9726;52.198;8.792;2023-02-03T12:32:22;30.98;;;5.60;;
19187;SDS011;9726;52.198;8.792;2023-02-03T12:39:51;24.57;;;4.07;;
19187;SDS011;9726;52.198;8.792;2023-02-03T12:42:20;22.13;;;4.30;;
19187;SDS011;9726;52.198;8.792;2023-02-03T12:45:12;34.58;;;5.85;;
19187;SDS011;9726;52.198;8.792;2023-02-03T12:47:45;21.57;;;4.20;;
19187;SDS011;9726;52.198;8.792;2023-02-03T12:50:21;16.50;;;3.83;;
19187;SDS011;9726;52.198;8.792;2023-02-03T12:52:52;33.70;;;4.63;;
19187;SDS011;9726;52.198;8.792;2023-02-03T12:58:05;16.17;;;3.73;;
19187;SDS011;9726;52.198;8.792;2023-02-03T13:00:43;18.83;;;4.30;;
19187;SDS011;9726;52.198;8.792;2023-02-03T13:10:52;31.93;;;4.60;;
19187;SDS011;9726;52.198;8.792;2023-02-03T13:13:43;37.60;;;5.30;;
19187;SDS011;9726;52.198;8.792;2023-02-03T13:16:09;43.30;;;5.17;;
19187;SDS011;9726;52.198;8.792;2023-02-03T13:18:37;26.47;;;4.97;;
19187;SDS011;9726;52.198;8.792;2023-02-03T13:21:09;29.57;;;4.17;;
19187;SDS011;9726;52.198;8.792;2023-02-03T13:23:43;18.73;;;5.13;;
19187;SDS011;9726;52.198;8.792;2023-02-03T13:39:33;32.27;;;6.20;;
19187;SDS011;9726;52.198;8.792;2023-02-03T13:44:50;39.57;;;6.37;;
19187;SDS011;9726;52.198;8.792;2023-02-03T13:47:27;25.17;;;4.07;;
19187;SDS011;9726;52.198;8.792;2023-02-03T13:49:56;29.30;;;4.00;;
19187;SDS011;9726;52.198;8.792;2023-02-03T13:54:52;29.27;;;4.83;;
19187;SDS011;9726;52.198;8.792;2023-02-03T13:57:21;32.57;;;4.93;;
19187;SDS011;9726;52.198;8.792;2023-02-03T13:59:49;31.03;;;4.97;;
19187;SDS011;9726;52.198;8.792;2023-02-03T14:04:53;23.00;;;4.43;;
19187;SDS011;9726;52.198;8.792;2023-02-03T14:18:03;48.03;;;5.37;;
19187;SDS011;9726;52.198;8.792;2023-02-03T14:20:33;33.20;;;4.57;;
19187;SDS011;9726;52.198;8.792;2023-02-03T14:25:31;17.60;;;4.07;;
19187;SDS011;9726;52.198;8.792;2023-02-03T14:28:04;26.77;;;4.40;;
19187;SDS011;9726;52.198;8.792;2023-02-03T14:30:32;25.67;;;3.30;;
19187;SDS011;9726;52.198;8.792;2023-02-03T14:33:41;41.10;;;5.90;;
19187;SDS011;9726;52.198;8.792;2023-02-03T14:36:28;20.03;;;3.67;;
19187;SDS011;9726;52.198;8.792;2023-02-03T14:38:58;26.77;;;4.13;;
19187;SDS011;9726;52.198;8.792;2023-02-03T14:41:40;27.47;;;5.63;;
19187;SDS011;9726;52.198;8.792;2023-02-03T14:44:15;25.13;;;4.27;;
19187;SDS011;9726;52.198;8.792;2023-02-03T14:46:58;34.93;;;6.00;;
19187;SDS011;9726;52.198;8.792;2023-02-03T14:49:36;25.47;;;4.37;;
19187;SDS011;9726;52.198;8.792;2023-02-03T14:59:58;38.40;;;5.13;;
19187;SDS011;9726;52.198;8.792;2023-02-03T15:05:43;32.40;;;4.87;;
19187;SDS011;9726;52.198;8.792;2023-02-03T15:10:56;13.83;;;3.97;;
19187;SDS011;9726;52.198;8.792;2023-02-03T15:13:30;29.13;;;4.97;;
19187;SDS011;9726;52.198;8.792;2023-02-03T15:15:59;29.67;;;4.33;;
19187;SDS011;9726;52.198;8.792;2023-02-03T15:18:29;33.07;;;5.63;;
19187;SDS011;9726;52.198;8.792;2023-02-03T15:20:57;22.63;;;4.37;;
19187;SDS011;9726;52.198;8.792;2023-02-03T15:25:54;23.73;;;3.13;;
19187;SDS011;9726;52.198;8.792;2023-02-03T15:28:23;34.03;;;5.57;;
19187;SDS011;9726;52.198;8.792;2023-02-03T15:31:12;35.53;;;4.97;;
19187;SDS011;9726;52.198;8.792;2023-02-03T15:33:40;27.00;;;5.20;;
19187;SDS011;9726;52.198;8.792;2023-02-03T15:36:14;11.97;;;3.07;;
19187;SDS011;9726;52.198;8.792;2023-02-03T15:38:45;25.20;;;5.80;;
19187;SDS011;9726;52.198;8.792;2023-02-03T15:41:16;19.53;;;4.47;;
19187;SDS011;9726;52.198;8.792;2023-02-03T15:43:45;25.00;;;5.50;;
19187;SDS011;9726;52.198;8.792;2023-02-03T15:46:15;24.00;;;3.23;;
19187;SDS011;9726;52.198;8.792;2023-02-03T15:48:48;15.53;;;3.00;;
19187;SDS011;9726;52.198;8.792;2023-02-03T15:56:22;21.13;;;4.13;;
19187;SDS011;9726;52.198;8.792;2023-02-03T15:58:51;17.20;;;4.20;;
19187;SDS011;9726;52.198;8.792;2023-02-03T16:01:20;29.57;;;5.07;;
19187;SDS011;9726;52.198;8.792;2023-02-03T16:03:53;32.10;;;3.73;;
19187;SDS011;9726;52.198;8.792;2023-02-03T16:06:29;28.53;;;4.43;;
19187;SDS011;9726;52.198;8.792;2023-02-03T16:09:01;25.23;;;4.83;;
19187;SDS011;9726;52.198;8.792;2023-02-03T16:14:01;28.23;;;4.13;;
19187;SDS011;9726;52.198;8.792;2023-02-03T16:16:37;19.33;;;3.60;;
19187;SDS011;9726;52.198;8.792;2023-02-03T16:19:14;39.47;;;5.27;;
19187;SDS011;9726;52.198;8.792;2023-02-03T16:29:45;19.97;;;3.23;;
19187;SDS011;9726;52.198;8.792;2023-02-03T16:32:31;39.53;;;6.47;;
19187;SDS011;9726;52.198;8.792;2023-02-03T16:35:17;24.90;;;4.80;;
19187;SDS011;9726;52.198;8.792;2023-02-03T16:38:04;29.83;;;5.23;;
19187;SDS011;9726;52.198;8.792;2023-02-03T16:40:50;22.00;;;3.50;;
19187;SDS011;9726;52.198;8.792;2023-02-03T16:43:36;25.57;;;4.40;;
19187;SDS011;9726;52.198;8.792;2023-02-03T16:46:23;15.17;;;2.90;;
19187;SDS011;9726;52.198;8.792;2023-02-03T16:49:09;30.50;;;4.30;;
19187;SDS011;9726;52.198;8.792;2023-02-03T16:51:55;48.80;;;5.03;;
19187;SDS011;9726;52.198;8.792;2023-02-03T16:54:22;43.23;;;5.83;;
19187;SDS011;9726;52.198;8.792;2023-02-03T16:56:49;17.50;;;3.77;;
19187;SDS011;9726;52.198;8.792;2023-02-03T16:59:17;35.57;;;5.13;;
19187;SDS011;9726;52.198;8.792;2023-02-03T17:01:45;27.00;;;4.17;;
19187;SDS011;9726;52.198;8.792;2023-02-03T17:04:12;22.57;;;4.07;;
19187;SDS011;9726;52.198;8.792;2023-02-03T17:06:39;24.47;;;3.80;;
19187;SDS011;9726;52.198;8.792;2023-02-03T17:09:09;41.63;;;5.13;;
19187;SDS011;9726;52.198;8.792;2023-02-03T17:11:36;22.37;;;4.93;;
19187;SDS011;9726;52.198;8.792;2023-02-03T17:14:05;33.73;;;5.87;;
19187;SDS011;9726;52.198;8.792;2023-02-03T17:16:32;35.83;;;4.93;;
19187;SDS011;9726;52.198;8.792;2023-02-03T17:19:00;33.70;;;4.03;;
19187;SDS011;9726;52.198;8.792;2023-02-03T17:21:28;18.97;;;3.60;;
19187;SDS011;9726;52.198;8.792;2023-02-03T17:23:56;27.67;;;4.27;;
19187;SDS011;9726;52.198;8.792;2023-02-03T17:26:24;45.77;;;6.73;;
19187;SDS011;9726;52.198;8.792;2023-02-03T17:28:52;30.10;;;4.63;;
19187;SDS011;9726;52.198;8.792;2023-02-03T17:31:19;39.07;;;5.77;;
19187;SDS011;9726;52.198;8.792;2023-02-03T17:33:50;32.97;;;5.70;;
19187;SDS011;9726;52.198;8.792;2023-02-03T17:36:18;18.53;;;3.93;;
19187;SDS011;9726;52.198;8.792;2023-02-03T17:38:48;29.40;;;5.47;;
19187;SDS011;9726;52.198;8.792;2023-02-03T17:41:32;25.47;;;4.57;;
19187;SDS011;9726;52.198;8.792;2023-02-03T17:44:17;38.13;;;5.00;;